Bourbonnais, Illinois
Current Conditions -  °F | °C
As of 11:35 AM on Wednesday 26 Nov 2014 (Local Time) from KJOT Reporting Station
Overcast Overcast  
Wind Chill: 19°   Ceiling: 1500
Heat Index: 26°   Visibility: 10mi
Dew Point: 20°   Wind: 6mph
Humidity: 81%   Direction: 140°SE
Pressure: 30.13"   Gusts: NA
Location:  41.15°N, 87.88°W
Report Text: KJOT 261735Z AUTO 14005KT 10SM OVC015 M03/M06 A3013 RMK AO2 T10351064
Loading
Personal Weather Stations






























Interactive Weather Map New forecast layout! Learn more

10-Day Weather Forecast

Advertisements
Track Severe Weather on mobile